sensor_id;sensor_type;location;lat;lon;timestamp;pressure;altitude;pressure_sealevel;temperature;humidity
46464;BME280;32161;48.148;-1.554;2023-12-20T00:00:07;102032.56;;;8.35;100.00
46464;BME280;32161;48.148;-1.554;2023-12-20T00:02:35;102040.75;;;8.27;100.00
46464;BME280;32161;48.148;-1.554;2023-12-20T00:05:03;102035.44;;;8.19;100.00
46464;BME280;32161;48.148;-1.554;2023-12-20T00:07:31;102049.97;;;8.18;100.00
46464;BME280;32161;48.148;-1.554;2023-12-20T00:10:00;102049.69;;;8.13;100.00
46464;BME280;32161;48.148;-1.554;2023-12-20T00:12:27;102049.19;;;8.09;100.00
46464;BME280;32161;48.148;-1.554;2023-12-20T00:14:55;102050.03;;;8.10;100.00
46464;BME280;32161;48.148;-1.554;2023-12-20T00:17:22;102041.91;;;8.10;100.00
46464;BME280;32161;48.148;-1.554;2023-12-20T00:19:50;102049.19;;;8.09;100.00
46464;BME280;32161;48.148;-1.554;2023-12-20T00:22:17;102064.63;;;8.08;100.00
46464;BME280;32161;48.148;-1.554;2023-12-20T00:24:45;102054.13;;;8.05;100.00
46464;BME280;32161;48.148;-1.554;2023-12-20T00:27:14;102060.59;;;8.04;100.00
46464;BME280;32161;48.148;-1.554;2023-12-20T00:29:41;102062.81;;;8.01;100.00
46464;BME280;32161;48.148;-1.554;2023-12-20T00:32:14;102061.50;;;7.97;100.00
46464;BME280;32161;48.148;-1.554;2023-12-20T00:34:41;102065.38;;;7.94;100.00
46464;BME280;32161;48.148;-1.554;2023-12-20T00:37:09;102058.66;;;7.90;100.00
46464;BME280;32161;48.148;-1.554;2023-12-20T00:39:36;102061.72;;;7.87;100.00
46464;BME280;32161;48.148;-1.554;2023-12-20T00:42:04;102065.66;;;7.85;100.00
46464;BME280;32161;48.148;-1.554;2023-12-20T00:44:33;102075.16;;;7.80;100.00
46464;BME280;32161;48.148;-1.554;2023-12-20T00:47:01;102078.22;;;7.77;100.00
46464;BME280;32161;48.148;-1.554;2023-12-20T00:49:28;102081.47;;;7.73;100.00
46464;BME280;32161;48.148;-1.554;2023-12-20T00:51:56;102080.81;;;7.63;100.00
46464;BME280;32161;48.148;-1.554;2023-12-20T00:54:24;102081.19;;;7.59;100.00
46464;BME280;32161;48.148;-1.554;2023-12-20T00:56:51;102086.94;;;7.56;100.00
46464;BME280;32161;48.148;-1.554;2023-12-20T00:59:19;102084.78;;;7.52;100.00
46464;BME280;32161;48.148;-1.554;2023-12-20T01:01:48;102085.97;;;7.49;100.00
46464;BME280;32161;48.148;-1.554;2023-12-20T01:04:16;102088.00;;;7.47;100.00
46464;BME280;32161;48.148;-1.554;2023-12-20T01:06:43;102081.09;;;7.45;100.00
46464;BME280;32161;48.148;-1.554;2023-12-20T01:09:11;102087.72;;;7.42;100.00
46464;BME280;32161;48.148;-1.554;2023-12-20T01:11:39;102086.00;;;7.41;100.00
46464;BME280;32161;48.148;-1.554;2023-12-20T01:14:06;102083.47;;;7.40;100.00
46464;BME280;32161;48.148;-1.554;2023-12-20T01:16:34;102089.91;;;7.39;100.00
46464;BME280;32161;48.148;-1.554;2023-12-20T01:19:02;102091.78;;;7.38;100.00
46464;BME280;32161;48.148;-1.554;2023-12-20T01:21:30;102090.63;;;7.32;100.00
46464;BME280;32161;48.148;-1.554;2023-12-20T01:23:57;102088.44;;;7.28;100.00
46464;BME280;32161;48.148;-1.554;2023-12-20T01:26:25;102094.19;;;7.25;100.00
46464;BME280;32161;48.148;-1.554;2023-12-20T01:28:52;102088.97;;;7.23;100.00
46464;BME280;32161;48.148;-1.554;2023-12-20T01:31:20;102095.38;;;7.22;100.00
46464;BME280;32161;48.148;-1.554;2023-12-20T01:33:47;102098.47;;;7.19;100.00
46464;BME280;32161;48.148;-1.554;2023-12-20T01:36:16;102089.50;;;7.19;100.00
46464;BME280;32161;48.148;-1.554;2023-12-20T01:38:44;102098.59;;;7.18;100.00
46464;BME280;32161;48.148;-1.554;2023-12-20T01:41:12;102092.59;;;7.07;100.00
46464;BME280;32161;48.148;-1.554;2023-12-20T01:43:40;102093.25;;;7.01;100.00
46464;BME280;32161;48.148;-1.554;2023-12-20T01:46:07;102097.34;;;6.97;100.00
46464;BME280;32161;48.148;-1.554;2023-12-20T01:48:35;102098.50;;;6.95;100.00
46464;BME280;32161;48.148;-1.554;2023-12-20T01:51:03;102111.38;;;6.93;100.00
46464;BME280;32161;48.148;-1.554;2023-12-20T01:53:33;102109.31;;;6.95;100.00
46464;BME280;32161;48.148;-1.554;2023-12-20T01:56:02;102106.16;;;6.83;100.00
46464;BME280;32161;48.148;-1.554;2023-12-20T01:58:29;102103.47;;;6.75;100.00
46464;BME280;32161;48.148;-1.554;2023-12-20T02:00:57;102101.09;;;6.72;100.00
46464;BME280;32161;48.148;-1.554;2023-12-20T02:03:25;102102.13;;;6.71;100.00
46464;BME280;32161;48.148;-1.554;2023-12-20T02:05:53;102110.91;;;6.73;100.00
46464;BME280;32161;48.148;-1.554;2023-12-20T02:08:21;102118.84;;;6.74;100.00
46464;BME280;32161;48.148;-1.554;2023-12-20T02:10:50;102121.84;;;6.79;100.00
46464;BME280;32161;48.148;-1.554;2023-12-20T02:13:18;102116.31;;;6.81;100.00
46464;BME280;32161;48.148;-1.554;2023-12-20T02:15:46;102115.94;;;6.84;100.00
46464;BME280;32161;48.148;-1.554;2023-12-20T02:18:13;102110.69;;;6.91;100.00
46464;BME280;32161;48.148;-1.554;2023-12-20T02:20:42;102109.31;;;6.95;100.00
46464;BME280;32161;48.148;-1.554;2023-12-20T02:23:12;102109.00;;;6.98;100.00
46464;BME280;32161;48.148;-1.554;2023-12-20T02:25:39;102119.47;;;7.01;100.00
46464;BME280;32161;48.148;-1.554;2023-12-20T02:28:07;102126.19;;;7.13;100.00
46464;BME280;32161;48.148;-1.554;2023-12-20T02:30:35;102120.59;;;7.15;100.00
46464;BME280;32161;48.148;-1.554;2023-12-20T02:33:05;102119.72;;;7.22;100.00
46464;BME280;32161;48.148;-1.554;2023-12-20T02:35:35;102115.81;;;7.25;100.00
46464;BME280;32161;48.148;-1.554;2023-12-20T02:38:03;102120.91;;;7.28;100.00
46464;BME280;32161;48.148;-1.554;2023-12-20T02:40:32;102115.16;;;7.31;100.00
46464;BME280;32161;48.148;-1.554;2023-12-20T02:43:00;102118.34;;;7.34;100.00
46464;BME280;32161;48.148;-1.554;2023-12-20T02:45:27;102113.78;;;7.35;100.00
46464;BME280;32161;48.148;-1.554;2023-12-20T02:47:55;102115.63;;;7.34;100.00
46464;BME280;32161;48.148;-1.554;2023-12-20T02:50:22;102112.41;;;7.39;100.00
46464;BME280;32161;48.148;-1.554;2023-12-20T02:52:50;102101.75;;;7.38;100.00
46464;BME280;32161;48.148;-1.554;2023-12-20T02:55:18;102100.56;;;7.40;100.00
46464;BME280;32161;48.148;-1.554;2023-12-20T02:57:46;102103.56;;;7.45;100.00
46464;BME280;32161;48.148;-1.554;2023-12-20T03:00:15;102104.25;;;7.47;100.00
46464;BME280;32161;48.148;-1.554;2023-12-20T03:02:42;102102.88;;;7.51;100.00
46464;BME280;32161;48.148;-1.554;2023-12-20T03:05:10;102101.00;;;7.52;100.00
46464;BME280;32161;48.148;-1.554;2023-12-20T03:07:37;102101.00;;;7.52;100.00
46464;BME280;32161;48.148;-1.554;2023-12-20T03:10:06;102105.38;;;7.53;100.00
46464;BME280;32161;48.148;-1.554;2023-12-20T03:12:35;102107.25;;;7.52;100.00
46464;BME280;32161;48.148;-1.554;2023-12-20T03:15:05;102114.38;;;7.45;100.00
46464;BME280;32161;48.148;-1.554;2023-12-20T03:17:32;102112.06;;;7.42;100.00
46464;BME280;32161;48.148;-1.554;2023-12-20T03:20:00;102120.84;;;7.36;100.00
46464;BME280;32161;48.148;-1.554;2023-12-20T03:22:28;102118.16;;;7.36;100.00
46464;BME280;32161;48.148;-1.554;2023-12-20T03:24:55;102119.84;;;7.37;100.00
46464;BME280;32161;48.148;-1.554;2023-12-20T03:27:23;102121.53;;;7.38;100.00
46464;BME280;32161;48.148;-1.554;2023-12-20T03:29:50;102120.53;;;7.39;100.00
46464;BME280;32161;48.148;-1.554;2023-12-20T03:32:19;102120.66;;;7.38;100.00
46464;BME280;32161;48.148;-1.554;2023-12-20T03:34:46;102113.94;;;7.33;100.00
46464;BME280;32161;48.148;-1.554;2023-12-20T03:37:14;102113.44;;;7.30;100.00
46464;BME280;32161;48.148;-1.554;2023-12-20T03:39:42;102122.56;;;7.29;100.00
46464;BME280;32161;48.148;-1.554;2023-12-20T03:42:09;102112.28;;;7.24;100.00
46464;BME280;32161;48.148;-1.554;2023-12-20T03:44:39;102118.22;;;7.20;100.00
46464;BME280;32161;48.148;-1.554;2023-12-20T03:47:06;102114.00;;;7.17;100.00
46464;BME280;32161;48.148;-1.554;2023-12-20T03:49:35;102108.94;;;7.14;100.00
46464;BME280;32161;48.148;-1.554;2023-12-20T03:52:05;102109.13;;;7.13;100.00
46464;BME280;32161;48.148;-1.554;2023-12-20T03:54:33;102107.44;;;7.12;100.00
46464;BME280;32161;48.148;-1.554;2023-12-20T03:57:00;102112.84;;;7.12;100.00
46464;BME280;32161;48.148;-1.554;2023-12-20T03:59:28;102112.16;;;7.09;100.00
46464;BME280;32161;48.148;-1.554;2023-12-20T04:01:55;102107.09;;;7.06;100.00
46464;BME280;32161;48.148;-1.554;2023-12-20T04:04:23;102098.00;;;7.07;100.00
46464;BME280;32161;48.148;-1.554;2023-12-20T04:06:51;102108.97;;;7.06;100.00
46464;BME280;32161;48.148;-1.554;2023-12-20T04:09:19;102098.34;;;7.04;100.00
46464;BME280;32161;48.148;-1.554;2023-12-20T04:11:47;102094.78;;;7.04;100.00
46464;BME280;32161;48.148;-1.554;2023-12-20T04:14:14;102081.63;;;7.01;100.00
46464;BME280;32161;48.148;-1.554;2023-12-20T04:16:42;102094.28;;;7.00;100.00
46464;BME280;32161;48.148;-1.554;2023-12-20T04:19:09;102097.00;;;7.00;100.00
46464;BME280;32161;48.148;-1.554;2023-12-20T04:21:37;102100.69;;;6.99;100.00
46464;BME280;32161;48.148;-1.554;2023-12-20T04:24:06;102111.88;;;6.96;100.00
46464;BME280;32161;48.148;-1.554;2023-12-20T04:26:34;102112.22;;;6.93;100.00
46464;BME280;32161;48.148;-1.554;2023-12-20T04:29:02;102101.75;;;6.90;100.00
46464;BME280;32161;48.148;-1.554;2023-12-20T04:31:29;102099.38;;;6.87;100.00
46464;BME280;32161;48.148;-1.554;2023-12-20T04:33:57;102097.00;;;6.84;100.00
46464;BME280;32161;48.148;-1.554;2023-12-20T04:36:24;102109.03;;;6.81;100.00
46464;BME280;32161;48.148;-1.554;2023-12-20T04:38:53;102098.56;;;6.78;100.00
46464;BME280;32161;48.148;-1.554;2023-12-20T04:41:22;102098.06;;;6.75;100.00
46464;BME280;32161;48.148;-1.554;2023-12-20T04:43:49;102099.22;;;6.72;100.00
46464;BME280;32161;48.148;-1.554;2023-12-20T04:46:17;102089.28;;;6.73;100.00
46464;BME280;32161;48.148;-1.554;2023-12-20T04:48:44;102098.41;;;6.72;100.00
46464;BME280;32161;48.148;-1.554;2023-12-20T04:51:12;102104.31;;;6.67;100.00
46464;BME280;32161;48.148;-1.554;2023-12-20T04:53:39;102115.31;;;6.66;100.00
46464;BME280;32161;48.148;-1.554;2023-12-20T04:56:07;102122.06;;;6.70;100.00
46464;BME280;32161;48.148;-1.554;2023-12-20T04:58:36;102121.72;;;6.73;100.00
46464;BME280;32161;48.148;-1.554;2023-12-20T05:01:04;102124.75;;;6.70;100.00
46464;BME280;32161;48.148;-1.554;2023-12-20T05:03:33;102119.50;;;6.68;100.00
46464;BME280;32161;48.148;-1.554;2023-12-20T05:06:00;102125.75;;;6.69;100.00
46464;BME280;32161;48.148;-1.554;2023-12-20T05:08:28;102127.13;;;6.73;100.00
46464;BME280;32161;48.148;-1.554;2023-12-20T05:10:55;102126.75;;;6.76;100.00
46464;BME280;32161;48.148;-1.554;2023-12-20T05:13:24;102128.63;;;6.75;100.00
46464;BME280;32161;48.148;-1.554;2023-12-20T05:15:53;102140.63;;;6.81;100.00
46464;BME280;32161;48.148;-1.554;2023-12-20T05:18:21;102124.56;;;6.79;100.00
46464;BME280;32161;48.148;-1.554;2023-12-20T05:20:49;102131.69;;;6.80;100.00
46464;BME280;32161;48.148;-1.554;2023-12-20T05:23:16;102134.19;;;6.82;100.00
46464;BME280;32161;48.148;-1.554;2023-12-20T05:25:44;102129.81;;;6.81;100.00
46464;BME280;32161;48.148;-1.554;2023-12-20T05:28:12;102124.75;;;6.78;100.00
46464;BME280;32161;48.148;-1.554;2023-12-20T05:30:40;102123.72;;;6.79;100.00
46464;BME280;32161;48.148;-1.554;2023-12-20T05:33:08;102129.31;;;6.77;100.00
46464;BME280;32161;48.148;-1.554;2023-12-20T05:35:36;102129.47;;;6.76;100.00
46464;BME280;32161;48.148;-1.554;2023-12-20T05:38:04;102135.03;;;6.74;100.00
46464;BME280;32161;48.148;-1.554;2023-12-20T05:40:31;102131.50;;;6.82;100.00
46464;BME280;32161;48.148;-1.554;2023-12-20T05:42:59;102142.31;;;6.82;100.00
46464;BME280;32161;48.148;-1.554;2023-12-20T05:45:26;102135.22;;;6.81;100.00
46464;BME280;32161;48.148;-1.554;2023-12-20T05:47:54;102140.97;;;6.78;100.00
46464;BME280;32161;48.148;-1.554;2023-12-20T05:50:23;102137.56;;;6.76;100.00
46464;BME280;32161;48.148;-1.554;2023-12-20T05:52:50;102146.69;;;6.75;100.00
46464;BME280;32161;48.148;-1.554;2023-12-20T05:55:18;102144.69;;;6.77;100.00
46464;BME280;32161;48.148;-1.554;2023-12-20T05:57:45;102151.91;;;6.76;100.00
46464;BME280;32161;48.148;-1.554;2023-12-20T06:00:14;102137.75;;;6.74;100.00
46464;BME280;32161;48.148;-1.554;2023-12-20T06:02:43;102141.28;;;6.75;100.00
46464;BME280;32161;48.148;-1.554;2023-12-20T06:05:10;102140.44;;;6.74;100.00
46464;BME280;32161;48.148;-1.554;2023-12-20T06:07:39;102130.66;;;6.73;100.00
46464;BME280;32161;48.148;-1.554;2023-12-20T06:10:08;102137.06;;;6.72;100.00
46464;BME280;32161;48.148;-1.554;2023-12-20T06:12:35;102139.25;;;6.69;100.00
46464;BME280;32161;48.148;-1.554;2023-12-20T06:15:03;102141.13;;;6.68;100.00
46464;BME280;32161;48.148;-1.554;2023-12-20T06:17:31;102151.59;;;6.63;100.00
46464;BME280;32161;48.148;-1.554;2023-12-20T06:20:01;102163.25;;;6.64;100.00
46464;BME280;32161;48.148;-1.554;2023-12-20T06:22:29;102158.53;;;6.66;100.00
46464;BME280;32161;48.148;-1.554;2023-12-20T06:24:58;102163.09;;;6.65;100.00
46464;BME280;32161;48.148;-1.554;2023-12-20T06:27:25;102172.88;;;6.66;100.00
46464;BME280;32161;48.148;-1.554;2023-12-20T06:29:53;102177.09;;;6.60;100.00
46464;BME280;32161;48.148;-1.554;2023-12-20T06:32:21;102178.28;;;6.58;100.00
46464;BME280;32161;48.148;-1.554;2023-12-20T06:34:49;102180.63;;;6.53;100.00
46464;BME280;32161;48.148;-1.554;2023-12-20T06:37:17;102181.84;;;6.58;100.00
46464;BME280;32161;48.148;-1.554;2023-12-20T06:39:44;102189.25;;;6.65;100.00
46464;BME280;32161;48.148;-1.554;2023-12-20T06:42:14;102195.00;;;6.70;100.00
46464;BME280;32161;48.148;-1.554;2023-12-20T06:44:41;102195.53;;;6.73;100.00
46464;BME280;32161;48.148;-1.554;2023-12-20T06:47:09;102194.16;;;6.77;100.00
46464;BME280;32161;48.148;-1.554;2023-12-20T06:49:36;102199.25;;;6.80;100.00
46464;BME280;32161;48.148;-1.554;2023-12-20T06:52:04;102191.59;;;6.84;100.00
46464;BME280;32161;48.148;-1.554;2023-12-20T06:54:32;102203.09;;;6.86;100.00
46464;BME280;32161;48.148;-1.554;2023-12-20T06:57:00;102200.06;;;6.81;100.00
46464;BME280;32161;48.148;-1.554;2023-12-20T06:59:30;102208.84;;;6.83;100.00
46464;BME280;32161;48.148;-1.554;2023-12-20T07:01:58;102204.97;;;6.85;100.00
46464;BME280;32161;48.148;-1.554;2023-12-20T07:04:25;102197.72;;;6.78;100.00
46464;BME280;32161;48.148;-1.554;2023-12-20T07:06:53;102193.84;;;6.80;100.00
46464;BME280;32161;48.148;-1.554;2023-12-20T07:09:23;102199.38;;;6.79;100.00
46464;BME280;32161;48.148;-1.554;2023-12-20T07:11:51;102194.31;;;6.76;100.00
46464;BME280;32161;48.148;-1.554;2023-12-20T07:14:19;102194.31;;;6.76;100.00
46464;BME280;32161;48.148;-1.554;2023-12-20T07:16:48;102198.56;;;6.70;100.00
46464;BME280;32161;48.148;-1.554;2023-12-20T07:19:15;102203.78;;;6.72;100.00
46464;BME280;32161;48.148;-1.554;2023-12-20T07:21:43;102204.09;;;6.69;100.00
46464;BME280;32161;48.148;-1.554;2023-12-20T07:24:11;102205.97;;;6.68;100.00
46464;BME280;32161;48.148;-1.554;2023-12-20T07:26:38;102198.88;;;6.67;100.00
46464;BME280;32161;48.148;-1.554;2023-12-20T07:29:06;102192.81;;;6.65;100.00
46464;BME280;32161;48.148;-1.554;2023-12-20T07:31:33;102200.94;;;6.65;100.00
46464;BME280;32161;48.148;-1.554;2023-12-20T07:34:03;102198.38;;;6.64;100.00
46464;BME280;32161;48.148;-1.554;2023-12-20T07:36:31;102207.19;;;6.66;100.00
46464;BME280;32161;48.148;-1.554;2023-12-20T07:38:59;102202.75;;;6.65;100.00
46464;BME280;32161;48.148;-1.554;2023-12-20T07:41:26;102212.06;;;6.62;100.00
46464;BME280;32161;48.148;-1.554;2023-12-20T07:43:54;102221.53;;;6.58;100.00
46464;BME280;32161;48.148;-1.554;2023-12-20T07:46:22;102215.94;;;6.59;100.00
46464;BME280;32161;48.148;-1.554;2023-12-20T07:48:50;102208.00;;;6.50;100.00
46464;BME280;32161;48.148;-1.554;2023-12-20T07:51:19;102206.66;;;6.46;100.00
46464;BME280;32161;48.148;-1.554;2023-12-20T07:53:47;102215.25;;;6.49;100.00
46464;BME280;32161;48.148;-1.554;2023-12-20T07:56:15;102215.25;;;6.49;100.00
46464;BME280;32161;48.148;-1.554;2023-12-20T07:58:43;102209.84;;;6.49;100.00
46464;BME280;32161;48.148;-1.554;2023-12-20T08:01:11;102210.88;;;6.56;100.00
46464;BME280;32161;48.148;-1.554;2023-12-20T08:03:39;102214.25;;;6.58;100.00
46464;BME280;32161;48.148;-1.554;2023-12-20T08:06:07;102213.06;;;6.61;100.00
46464;BME280;32161;48.148;-1.554;2023-12-20T08:08:35;102211.03;;;6.63;100.00
46464;BME280;32161;48.148;-1.554;2023-12-20T08:11:03;102207.84;;;6.68;100.00
46464;BME280;32161;48.148;-1.554;2023-12-20T08:13:31;102203.13;;;6.70;100.00
46464;BME280;32161;48.148;-1.554;2023-12-20T08:15:58;102203.97;;;6.70;100.00
46464;BME280;32161;48.148;-1.554;2023-12-20T08:18:26;102204.47;;;6.74;100.00
46464;BME280;32161;48.148;-1.554;2023-12-20T08:20:53;102201.59;;;6.75;100.00
46464;BME280;32161;48.148;-1.554;2023-12-20T08:23:21;102201.44;;;6.77;100.00
46464;BME280;32161;48.148;-1.554;2023-12-20T08:25:51;102209.19;;;6.80;100.00
46464;BME280;32161;48.148;-1.554;2023-12-20T08:28:18;102210.72;;;6.74;100.00
46464;BME280;32161;48.148;-1.554;2023-12-20T08:30:46;102212.91;;;6.71;100.00
46464;BME280;32161;48.148;-1.554;2023-12-20T08:33:14;102232.16;;;6.76;100.00
46464;BME280;32161;48.148;-1.554;2023-12-20T08:35:41;102239.09;;;6.78;100.00
46464;BME280;32161;48.148;-1.554;2023-12-20T08:38:09;102252.25;;;6.73;100.00
46464;BME280;32161;48.148;-1.554;2023-12-20T08:40:37;102251.38;;;6.65;100.00
46464;BME280;32161;48.148;-1.554;2023-12-20T08:43:06;102253.44;;;6.87;100.00
46464;BME280;32161;48.148;-1.554;2023-12-20T08:45:34;102255.63;;;6.92;100.00
46464;BME280;32161;48.148;-1.554;2023-12-20T08:48:01;102261.53;;;6.95;100.00
46464;BME280;32161;48.148;-1.554;2023-12-20T08:50:29;102253.44;;;6.95;100.00
46464;BME280;32161;48.148;-1.554;2023-12-20T08:52:57;102246.66;;;6.99;100.00
46464;BME280;32161;48.148;-1.554;2023-12-20T08:55:25;102246.66;;;6.99;100.00
46464;BME280;32161;48.148;-1.554;2023-12-20T08:57:54;102241.13;;;7.01;100.00
46464;BME280;32161;48.148;-1.554;2023-12-20T09:00:23;102251.59;;;7.04;100.00
46464;BME280;32161;48.148;-1.554;2023-12-20T09:02:54;102251.06;;;7.08;100.00
46464;BME280;32161;48.148;-1.554;2023-12-20T09:05:21;102250.38;;;7.15;100.00
46464;BME280;32161;48.148;-1.554;2023-12-20T09:07:49;102248.38;;;7.17;100.00
46464;BME280;32161;48.148;-1.554;2023-12-20T09:10:17;102257.81;;;7.21;100.00
46464;BME280;32161;48.148;-1.554;2023-12-20T09:12:48;102248.03;;;7.20;100.00
46464;BME280;32161;48.148;-1.554;2023-12-20T09:15:15;102265.59;;;7.24;100.00
46464;BME280;32161;48.148;-1.554;2023-12-20T09:17:44;102259.84;;;7.35;100.00
46464;BME280;32161;48.148;-1.554;2023-12-20T09:20:12;102250.88;;;7.34;100.00
46464;BME280;32161;48.148;-1.554;2023-12-20T09:22:40;102248.31;;;7.41;100.00
46464;BME280;32161;48.148;-1.554;2023-12-20T09:25:09;102245.97;;;7.38;100.00
46464;BME280;32161;48.148;-1.554;2023-12-20T09:27:37;102238.50;;;7.40;100.00
46464;BME280;32161;48.148;-1.554;2023-12-20T09:30:06;102234.28;;;7.46;100.00
46464;BME280;32161;48.148;-1.554;2023-12-20T09:32:34;102224.28;;;7.54;100.00
46464;BME280;32161;48.148;-1.554;2023-12-20T09:35:04;102217.19;;;7.53;100.00
46464;BME280;32161;48.148;-1.554;2023-12-20T09:37:32;102220.06;;;7.52;100.00
46464;BME280;32161;48.148;-1.554;2023-12-20T09:40:00;102224.44;;;7.53;100.00
46464;BME280;32161;48.148;-1.554;2023-12-20T09:42:36;102230.34;;;7.56;100.00
46464;BME280;32161;48.148;-1.554;2023-12-20T09:45:08;102233.75;;;7.58;100.00
46464;BME280;32161;48.148;-1.554;2023-12-20T09:47:37;102223.56;;;7.61;100.00
46464;BME280;32161;48.148;-1.554;2023-12-20T09:50:07;102237.78;;;7.63;100.00
46464;BME280;32161;48.148;-1.554;2023-12-20T09:52:36;102229.63;;;7.71;100.00
46464;BME280;32161;48.148;-1.554;2023-12-20T09:55:07;102228.56;;;7.80;100.00
46464;BME280;32161;48.148;-1.554;2023-12-20T09:57:35;102229.94;;;7.84;100.00
46464;BME280;32161;48.148;-1.554;2023-12-20T10:00:04;102235.97;;;7.94;100.00
46464;BME280;32161;48.148;-1.554;2023-12-20T10:02:33;102247.28;;;7.98;100.00
46464;BME280;32161;48.148;-1.554;2023-12-20T10:05:02;102251.31;;;8.02;100.00
46464;BME280;32161;48.148;-1.554;2023-12-20T10:07:31;102256.03;;;8.08;100.00
46464;BME280;32161;48.148;-1.554;2023-12-20T10:09:58;102256.00;;;8.16;100.00
46464;BME280;32161;48.148;-1.554;2023-12-20T10:12:26;102258.53;;;8.18;100.00
46464;BME280;32161;48.148;-1.554;2023-12-20T10:14:54;102257.88;;;8.16;100.00
46464;BME280;32161;48.148;-1.554;2023-12-20T10:17:22;102251.72;;;8.22;100.00
46464;BME280;32161;48.148;-1.554;2023-12-20T10:19:50;102255.75;;;8.26;100.00
46464;BME280;32161;48.148;-1.554;2023-12-20T10:22:18;102263.38;;;8.30;100.00
46464;BME280;32161;48.148;-1.554;2023-12-20T10:24:47;102260.50;;;8.32;100.00
46464;BME280;32161;48.148;-1.554;2023-12-20T10:27:15;102247.13;;;8.30;100.00
46464;BME280;32161;48.148;-1.554;2023-12-20T10:29:45;102253.00;;;8.42;100.00
46464;BME280;32161;48.148;-1.554;2023-12-20T10:32:25;102249.94;;;8.45;100.00
46464;BME280;32161;48.148;-1.554;2023-12-20T10:34:54;102246.69;;;8.50;100.00
46464;BME280;32161;48.148;-1.554;2023-12-20T10:37:22;102234.63;;;8.52;100.00
46464;BME280;32161;48.148;-1.554;2023-12-20T10:39:53;102235.31;;;8.54;100.00
46464;BME280;32161;48.148;-1.554;2023-12-20T10:42:26;102234.09;;;8.57;100.00
46464;BME280;32161;48.148;-1.554;2023-12-20T10:44:54;102235.75;;;8.66;100.00
46464;BME280;32161;48.148;-1.554;2023-12-20T10:47:23;102228.50;;;8.59;100.00
46464;BME280;32161;48.148;-1.554;2023-12-20T10:49:52;102229.75;;;8.71;100.00
46464;BME280;32161;48.148;-1.554;2023-12-20T10:52:22;102232.75;;;8.76;100.00
46464;BME280;32161;48.148;-1.554;2023-12-20T10:54:51;102228.16;;;8.85;100.00
46464;BME280;32161;48.148;-1.554;2023-12-20T10:57:19;102227.59;;;8.89;100.00
46464;BME280;32161;48.148;-1.554;2023-12-20T10:59:49;102215.34;;;8.93;100.00
46464;BME280;32161;48.148;-1.554;2023-12-20T11:02:21;102219.28;;;9.05;100.00
46464;BME280;32161;48.148;-1.554;2023-12-20T11:04:55;102216.03;;;9.10;100.00
46464;BME280;32161;48.148;-1.554;2023-12-20T11:07:35;102214.34;;;9.09;100.00
46464;BME280;32161;48.148;-1.554;2023-12-20T11:10:16;102218.56;;;9.12;100.00
46464;BME280;32161;48.148;-1.554;2023-12-20T11:12:48;102207.34;;;9.15;100.00
46464;BME280;32161;48.148;-1.554;2023-12-20T11:15:20;102198.25;;;9.22;100.00
46464;BME280;32161;48.148;-1.554;2023-12-20T11:17:55;102193.41;;;9.18;100.00
46464;BME280;32161;48.148;-1.554;2023-12-20T11:20:24;102198.56;;;9.13;100.00
46464;BME280;32161;48.148;-1.554;2023-12-20T11:22:55;102204.94;;;9.20;100.00
46464;BME280;32161;48.148;-1.554;2023-12-20T11:25:24;102202.00;;;9.21;100.00
46464;BME280;32161;48.148;-1.554;2023-12-20T11:28:09;102197.25;;;9.23;100.00
46464;BME280;32161;48.148;-1.554;2023-12-20T11:30:47;102197.44;;;9.22;100.00
46464;BME280;32161;48.148;-1.554;2023-12-20T11:33:15;102191.66;;;9.54;100.00
46464;BME280;32161;48.148;-1.554;2023-12-20T11:35:45;102189.13;;;9.38;100.00
46464;BME280;32161;48.148;-1.554;2023-12-20T11:38:14;102197.63;;;9.35;100.00
46464;BME280;32161;48.148;-1.554;2023-12-20T11:40:43;102189.78;;;9.40;100.00
46464;BME280;32161;48.148;-1.554;2023-12-20T11:43:11;102184.72;;;9.37;100.00
46464;BME280;32161;48.148;-1.554;2023-12-20T11:45:49;102182.19;;;9.36;100.00
46464;BME280;32161;48.148;-1.554;2023-12-20T11:48:17;102177.50;;;9.29;100.00
46464;BME280;32161;48.148;-1.554;2023-12-20T11:50:45;102180.22;;;9.44;100.00
46464;BME280;32161;48.148;-1.554;2023-12-20T11:53:13;102180.31;;;9.51;100.00
46464;BME280;32161;48.148;-1.554;2023-12-20T11:55:42;102164.69;;;9.53;100.00
46464;BME280;32161;48.148;-1.554;2023-12-20T11:58:09;102155.03;;;9.65;100.00
46464;BME280;32161;48.148;-1.554;2023-12-20T12:00:38;102151.38;;;9.73;100.00
46464;BME280;32161;48.148;-1.554;2023-12-20T12:03:05;102144.41;;;9.85;100.00
46464;BME280;32161;48.148;-1.554;2023-12-20T12:05:33;102133.06;;;9.96;100.00
46464;BME280;32161;48.148;-1.554;2023-12-20T12:08:00;102136.88;;;10.02;100.00
46464;BME280;32161;48.148;-1.554;2023-12-20T12:10:29;102118.22;;;9.99;100.00
46464;BME280;32161;48.148;-1.554;2023-12-20T12:12:58;102118.56;;;10.11;100.00
46464;BME280;32161;48.148;-1.554;2023-12-20T12:15:26;102119.69;;;10.16;100.00
46464;BME280;32161;48.148;-1.554;2023-12-20T12:17:54;102117.22;;;10.21;100.00
46464;BME280;32161;48.148;-1.554;2023-12-20T12:20:23;102108.13;;;10.29;100.00
46464;BME280;32161;48.148;-1.554;2023-12-20T12:22:59;102097.44;;;10.27;100.00
46464;BME280;32161;48.148;-1.554;2023-12-20T12:25:28;102103.44;;;10.23;100.00
46464;BME280;32161;48.148;-1.554;2023-12-20T12:27:58;102103.84;;;10.41;100.00
46464;BME280;32161;48.148;-1.554;2023-12-20T12:30:26;102094.91;;;10.26;100.00
46464;BME280;32161;48.148;-1.554;2023-12-20T12:32:55;102093.91;;;10.27;100.00
46464;BME280;32161;48.148;-1.554;2023-12-20T12:35:23;102090.13;;;10.49;100.00
46464;BME280;32161;48.148;-1.554;2023-12-20T12:37:51;102078.44;;;10.56;100.00
46464;BME280;32161;48.148;-1.554;2023-12-20T12:40:19;102071.34;;;10.55;100.00
46464;BME280;32161;48.148;-1.554;2023-12-20T12:42:47;102071.72;;;10.51;100.00
46464;BME280;32161;48.148;-1.554;2023-12-20T12:45:16;102069.84;;;10.52;100.00